PILOTS ONLINE: 325    ATC ONLINE: 50

KTRK

Truckee Tahoe Airport

Location

City Truckee
Country  United States
Latitude 39° 19' 12" N
Longitude 120° 8' 23" W
Elevation 5900 ft
Type Medium Airport

Map

Weather

METAR
2014/09/17 23:55
KTRK 172355Z 23013G24KT 190V270 3SM FU BKN010 23/02 A3000 RMK NOSPECI FU OBSCG MTNS S-N
TAF
2014/09/17 18:27
TAF KTRK 171724Z 1718/1818 20015G28KT P6SM BKN200 
     FM172100 22012G24KT 3SM FU SCT025 SCT080 
     FM180300 22006KT P6SM SCT080 SCT200

Runways

01/19 4650 ft / 75 ft
10/28 7000 ft / 100 ft

Outbound flights

Callsign Flying to Pilot ATD/STD ETA Aircraft

Inbound flights

Callsign Flying from Pilot ATD ETA Aircraft